sensor_id;sensor_type;location;lat;lon;timestamp;P1;durP1;ratioP1;P2;durP2;ratioP2
2562;SDS011;1291;51.420;6.970;2022-12-18T00:01:25;9.90;;;5.00;;
2562;SDS011;1291;51.420;6.970;2022-12-18T00:03:51;7.20;;;5.43;;
2562;SDS011;1291;51.420;6.970;2022-12-18T00:06:17;6.43;;;4.33;;
2562;SDS011;1291;51.420;6.970;2022-12-18T00:08:44;8.27;;;4.97;;
2562;SDS011;1291;51.420;6.970;2022-12-18T00:11:11;8.53;;;5.13;;
2562;SDS011;1291;51.420;6.970;2022-12-18T00:13:41;7.73;;;4.87;;
2562;SDS011;1291;51.420;6.970;2022-12-18T00:16:08;8.50;;;5.30;;
2562;SDS011;1291;51.420;6.970;2022-12-18T00:18:39;9.90;;;5.70;;
2562;SDS011;1291;51.420;6.970;2022-12-18T00:21:06;7.67;;;4.87;;
2562;SDS011;1291;51.420;6.970;2022-12-18T00:23:34;8.83;;;5.33;;
2562;SDS011;1291;51.420;6.970;2022-12-18T00:26:04;9.60;;;5.10;;
2562;SDS011;1291;51.420;6.970;2022-12-18T00:28:32;6.83;;;4.93;;
2562;SDS011;1291;51.420;6.970;2022-12-18T00:31:01;9.90;;;5.53;;
2562;SDS011;1291;51.420;6.970;2022-12-18T00:33:31;7.83;;;4.80;;
2562;SDS011;1291;51.420;6.970;2022-12-18T00:36:15;7.33;;;4.63;;
2562;SDS011;1291;51.420;6.970;2022-12-18T00:38:46;7.33;;;4.90;;
2562;SDS011;1291;51.420;6.970;2022-12-18T00:41:13;8.20;;;5.30;;
2562;SDS011;1291;51.420;6.970;2022-12-18T00:43:59;9.57;;;5.20;;
2562;SDS011;1291;51.420;6.970;2022-12-18T00:46:25;7.17;;;5.30;;
2562;SDS011;1291;51.420;6.970;2022-12-18T00:48:50;6.10;;;4.60;;
2562;SDS011;1291;51.420;6.970;2022-12-18T00:51:16;7.80;;;4.90;;
2562;SDS011;1291;51.420;6.970;2022-12-18T00:53:41;8.87;;;4.57;;
2562;SDS011;1291;51.420;6.970;2022-12-18T00:56:09;7.73;;;5.17;;
2562;SDS011;1291;51.420;6.970;2022-12-18T00:58:35;6.60;;;4.47;;
2562;SDS011;1291;51.420;6.970;2022-12-18T01:01:00;7.27;;;4.47;;
2562;SDS011;1291;51.420;6.970;2022-12-18T01:03:25;5.73;;;4.00;;
2562;SDS011;1291;51.420;6.970;2022-12-18T01:05:51;6.93;;;4.30;;
2562;SDS011;1291;51.420;6.970;2022-12-18T01:08:16;8.27;;;4.47;;
2562;SDS011;1291;51.420;6.970;2022-12-18T01:10:41;7.03;;;4.50;;
2562;SDS011;1291;51.420;6.970;2022-12-18T01:13:07;6.97;;;4.53;;
2562;SDS011;1291;51.420;6.970;2022-12-18T01:15:32;7.57;;;4.83;;
2562;SDS011;1291;51.420;6.970;2022-12-18T01:17:57;5.27;;;4.10;;
2562;SDS011;1291;51.420;6.970;2022-12-18T01:20:23;9.20;;;4.90;;
2562;SDS011;1291;51.420;6.970;2022-12-18T01:22:48;7.30;;;4.77;;
2562;SDS011;1291;51.420;6.970;2022-12-18T01:25:13;8.17;;;5.07;;
2562;SDS011;1291;51.420;6.970;2022-12-18T01:27:39;7.93;;;5.13;;
2562;SDS011;1291;51.420;6.970;2022-12-18T01:30:04;6.73;;;4.13;;
2562;SDS011;1291;51.420;6.970;2022-12-18T01:32:31;5.67;;;4.30;;
2562;SDS011;1291;51.420;6.970;2022-12-18T01:34:57;8.17;;;4.67;;
2562;SDS011;1291;51.420;6.970;2022-12-18T01:37:22;9.13;;;5.00;;
2562;SDS011;1291;51.420;6.970;2022-12-18T01:39:47;7.03;;;4.63;;
2562;SDS011;1291;51.420;6.970;2022-12-18T01:42:15;7.47;;;5.30;;
2562;SDS011;1291;51.420;6.970;2022-12-18T01:50:16;7.97;;;4.57;;
2562;SDS011;1291;51.420;6.970;2022-12-18T01:52:42;7.03;;;4.60;;
2562;SDS011;1291;51.420;6.970;2022-12-18T01:55:11;9.07;;;6.17;;
2562;SDS011;1291;51.420;6.970;2022-12-18T01:57:42;7.77;;;5.03;;
2562;SDS011;1291;51.420;6.970;2022-12-18T02:00:12;9.73;;;5.37;;
2562;SDS011;1291;51.420;6.970;2022-12-18T02:02:43;7.37;;;4.80;;
2562;SDS011;1291;51.420;6.970;2022-12-18T02:05:10;7.47;;;4.77;;
2562;SDS011;1291;51.420;6.970;2022-12-18T02:13:26;6.43;;;4.77;;
2562;SDS011;1291;51.420;6.970;2022-12-18T02:15:58;8.97;;;4.93;;
2562;SDS011;1291;51.420;6.970;2022-12-18T02:18:39;7.03;;;4.53;;
2562;SDS011;1291;51.420;6.970;2022-12-18T02:24:33;8.53;;;5.07;;
2562;SDS011;1291;51.420;6.970;2022-12-18T02:27:07;8.63;;;5.47;;
2562;SDS011;1291;51.420;6.970;2022-12-18T02:32:10;8.10;;;5.00;;
2562;SDS011;1291;51.420;6.970;2022-12-18T02:34:39;7.27;;;4.97;;
2562;SDS011;1291;51.420;6.970;2022-12-18T02:37:07;7.17;;;4.50;;
2562;SDS011;1291;51.420;6.970;2022-12-18T02:39:36;5.73;;;4.40;;
2562;SDS011;1291;51.420;6.970;2022-12-18T02:42:03;8.37;;;4.80;;
2562;SDS011;1291;51.420;6.970;2022-12-18T02:44:33;8.50;;;4.67;;
2562;SDS011;1291;51.420;6.970;2022-12-18T02:46:59;7.53;;;4.67;;
2562;SDS011;1291;51.420;6.970;2022-12-18T02:49:27;8.43;;;5.20;;
2562;SDS011;1291;51.420;6.970;2022-12-18T02:52:06;9.17;;;4.93;;
2562;SDS011;1291;51.420;6.970;2022-12-18T02:57:42;6.40;;;4.40;;
2562;SDS011;1291;51.420;6.970;2022-12-18T03:00:19;7.27;;;4.90;;
2562;SDS011;1291;51.420;6.970;2022-12-18T03:02:59;9.50;;;5.67;;
2562;SDS011;1291;51.420;6.970;2022-12-18T03:05:37;8.90;;;5.13;;
2562;SDS011;1291;51.420;6.970;2022-12-18T03:08:07;9.47;;;5.10;;
2562;SDS011;1291;51.420;6.970;2022-12-18T03:10:39;9.00;;;5.13;;
2562;SDS011;1291;51.420;6.970;2022-12-18T03:13:16;9.13;;;5.90;;
2562;SDS011;1291;51.420;6.970;2022-12-18T03:15:55;7.17;;;4.60;;
2562;SDS011;1291;51.420;6.970;2022-12-18T03:18:24;9.20;;;4.93;;
2562;SDS011;1291;51.420;6.970;2022-12-18T03:20:55;6.97;;;4.83;;
2562;SDS011;1291;51.420;6.970;2022-12-18T03:23:24;6.33;;;4.17;;
2562;SDS011;1291;51.420;6.970;2022-12-18T03:25:56;8.60;;;5.20;;
2562;SDS011;1291;51.420;6.970;2022-12-18T03:28:24;7.53;;;5.00;;
2562;SDS011;1291;51.420;6.970;2022-12-18T03:30:56;8.30;;;4.87;;
2562;SDS011;1291;51.420;6.970;2022-12-18T03:33:29;6.07;;;4.53;;
2562;SDS011;1291;51.420;6.970;2022-12-18T03:36:00;6.53;;;4.30;;
2562;SDS011;1291;51.420;6.970;2022-12-18T03:38:26;5.33;;;4.43;;
2562;SDS011;1291;51.420;6.970;2022-12-18T03:41:03;7.70;;;4.63;;
2562;SDS011;1291;51.420;6.970;2022-12-18T03:46:54;7.23;;;4.53;;
2562;SDS011;1291;51.420;6.970;2022-12-18T03:52:26;5.00;;;3.97;;
2562;SDS011;1291;51.420;6.970;2022-12-18T03:54:57;7.20;;;4.80;;
2562;SDS011;1291;51.420;6.970;2022-12-18T03:57:25;7.80;;;4.30;;
2562;SDS011;1291;51.420;6.970;2022-12-18T03:59:58;8.10;;;4.30;;
2562;SDS011;1291;51.420;6.970;2022-12-18T04:02:30;5.93;;;4.30;;
2562;SDS011;1291;51.420;6.970;2022-12-18T04:04:59;5.00;;;3.90;;
2562;SDS011;1291;51.420;6.970;2022-12-18T04:07:27;6.00;;;3.83;;
2562;SDS011;1291;51.420;6.970;2022-12-18T04:09:54;6.33;;;4.30;;
2562;SDS011;1291;51.420;6.970;2022-12-18T04:12:24;5.43;;;4.37;;
2562;SDS011;1291;51.420;6.970;2022-12-18T04:14:58;5.57;;;4.03;;
2562;SDS011;1291;51.420;6.970;2022-12-18T04:17:23;4.93;;;3.67;;
2562;SDS011;1291;51.420;6.970;2022-12-18T04:19:49;5.63;;;3.93;;
2562;SDS011;1291;51.420;6.970;2022-12-18T04:22:14;7.13;;;4.87;;
2562;SDS011;1291;51.420;6.970;2022-12-18T04:24:40;6.47;;;3.97;;
2562;SDS011;1291;51.420;6.970;2022-12-18T04:27:05;5.93;;;4.60;;
2562;SDS011;1291;51.420;6.970;2022-12-18T04:29:30;5.93;;;4.37;;
2562;SDS011;1291;51.420;6.970;2022-12-18T04:31:56;4.80;;;4.00;;
2562;SDS011;1291;51.420;6.970;2022-12-18T04:34:21;5.83;;;4.07;;
2562;SDS011;1291;51.420;6.970;2022-12-18T04:36:47;6.13;;;3.73;;
2562;SDS011;1291;51.420;6.970;2022-12-18T04:39:12;5.80;;;3.97;;
2562;SDS011;1291;51.420;6.970;2022-12-18T04:41:38;7.50;;;4.67;;
2562;SDS011;1291;51.420;6.970;2022-12-18T04:44:04;7.27;;;4.20;;
2562;SDS011;1291;51.420;6.970;2022-12-18T04:46:32;5.67;;;3.93;;
2562;SDS011;1291;51.420;6.970;2022-12-18T04:48:58;5.80;;;3.57;;
2562;SDS011;1291;51.420;6.970;2022-12-18T04:51:23;5.67;;;3.77;;
2562;SDS011;1291;51.420;6.970;2022-12-18T04:53:48;5.27;;;3.90;;
2562;SDS011;1291;51.420;6.970;2022-12-18T04:56:14;6.10;;;3.53;;
2562;SDS011;1291;51.420;6.970;2022-12-18T04:58:41;5.83;;;3.40;;
2562;SDS011;1291;51.420;6.970;2022-12-18T05:01:08;5.63;;;3.93;;
2562;SDS011;1291;51.420;6.970;2022-12-18T05:03:35;5.13;;;3.70;;
2562;SDS011;1291;51.420;6.970;2022-12-18T05:06:01;4.10;;;3.37;;
2562;SDS011;1291;51.420;6.970;2022-12-18T05:08:27;6.03;;;3.90;;
2562;SDS011;1291;51.420;6.970;2022-12-18T05:11:03;4.57;;;3.10;;
2562;SDS011;1291;51.420;6.970;2022-12-18T05:13:30;4.73;;;3.37;;
2562;SDS011;1291;51.420;6.970;2022-12-18T05:15:56;5.70;;;3.73;;
2562;SDS011;1291;51.420;6.970;2022-12-18T05:18:25;4.83;;;3.33;;
2562;SDS011;1291;51.420;6.970;2022-12-18T05:20:51;4.90;;;3.40;;
2562;SDS011;1291;51.420;6.970;2022-12-18T05:23:17;9.87;;;4.07;;
2562;SDS011;1291;51.420;6.970;2022-12-18T05:25:46;6.67;;;3.63;;
2562;SDS011;1291;51.420;6.970;2022-12-18T05:28:15;5.27;;;3.93;;
2562;SDS011;1291;51.420;6.970;2022-12-18T05:30:40;4.47;;;3.30;;
2562;SDS011;1291;51.420;6.970;2022-12-18T05:33:06;5.43;;;3.67;;
2562;SDS011;1291;51.420;6.970;2022-12-18T05:35:31;6.00;;;3.67;;
2562;SDS011;1291;51.420;6.970;2022-12-18T05:37:56;5.53;;;3.83;;
2562;SDS011;1291;51.420;6.970;2022-12-18T05:40:21;5.27;;;3.60;;
2562;SDS011;1291;51.420;6.970;2022-12-18T05:42:47;7.13;;;3.40;;
2562;SDS011;1291;51.420;6.970;2022-12-18T05:45:12;5.20;;;3.90;;
2562;SDS011;1291;51.420;6.970;2022-12-18T05:47:37;6.23;;;3.97;;
2562;SDS011;1291;51.420;6.970;2022-12-18T05:50:03;7.13;;;3.80;;
2562;SDS011;1291;51.420;6.970;2022-12-18T05:52:28;9.83;;;3.83;;
2562;SDS011;1291;51.420;6.970;2022-12-18T05:54:55;7.77;;;3.80;;
2562;SDS011;1291;51.420;6.970;2022-12-18T05:57:20;3.73;;;2.60;;
2562;SDS011;1291;51.420;6.970;2022-12-18T05:59:46;4.20;;;2.97;;
2562;SDS011;1291;51.420;6.970;2022-12-18T06:02:11;5.97;;;3.77;;
2562;SDS011;1291;51.420;6.970;2022-12-18T06:04:36;4.63;;;2.90;;
2562;SDS011;1291;51.420;6.970;2022-12-18T06:07:02;5.10;;;3.43;;
2562;SDS011;1291;51.420;6.970;2022-12-18T06:09:28;3.93;;;2.70;;
2562;SDS011;1291;51.420;6.970;2022-12-18T06:11:54;4.00;;;3.03;;
2562;SDS011;1291;51.420;6.970;2022-12-18T06:14:19;4.63;;;3.00;;
2562;SDS011;1291;51.420;6.970;2022-12-18T06:16:44;5.93;;;2.93;;
2562;SDS011;1291;51.420;6.970;2022-12-18T06:19:12;5.80;;;3.77;;
2562;SDS011;1291;51.420;6.970;2022-12-18T06:21:40;7.30;;;4.07;;
2562;SDS011;1291;51.420;6.970;2022-12-18T06:24:06;3.53;;;2.70;;
2562;SDS011;1291;51.420;6.970;2022-12-18T06:26:31;4.23;;;3.10;;
2562;SDS011;1291;51.420;6.970;2022-12-18T06:28:57;4.87;;;3.00;;
2562;SDS011;1291;51.420;6.970;2022-12-18T06:31:22;5.00;;;3.07;;
2562;SDS011;1291;51.420;6.970;2022-12-18T06:33:47;5.30;;;3.03;;
2562;SDS011;1291;51.420;6.970;2022-12-18T06:36:13;7.53;;;3.53;;
2562;SDS011;1291;51.420;6.970;2022-12-18T06:38:40;5.87;;;2.93;;
2562;SDS011;1291;51.420;6.970;2022-12-18T06:41:10;6.00;;;3.33;;
2562;SDS011;1291;51.420;6.970;2022-12-18T06:43:38;6.57;;;3.50;;
2562;SDS011;1291;51.420;6.970;2022-12-18T06:46:04;7.40;;;3.07;;
2562;SDS011;1291;51.420;6.970;2022-12-18T06:48:30;4.50;;;3.30;;
2562;SDS011;1291;51.420;6.970;2022-12-18T06:50:55;6.37;;;3.30;;
2562;SDS011;1291;51.420;6.970;2022-12-18T06:53:21;2.67;;;2.47;;
2562;SDS011;1291;51.420;6.970;2022-12-18T06:55:47;3.63;;;2.53;;
2562;SDS011;1291;51.420;6.970;2022-12-18T06:58:12;5.07;;;3.60;;
2562;SDS011;1291;51.420;6.970;2022-12-18T07:00:38;5.07;;;2.97;;
2562;SDS011;1291;51.420;6.970;2022-12-18T07:03:03;4.40;;;2.90;;
2562;SDS011;1291;51.420;6.970;2022-12-18T07:05:29;3.07;;;2.50;;
2562;SDS011;1291;51.420;6.970;2022-12-18T07:07:54;3.17;;;2.50;;
2562;SDS011;1291;51.420;6.970;2022-12-18T07:10:22;4.07;;;2.90;;
2562;SDS011;1291;51.420;6.970;2022-12-18T07:12:48;6.63;;;2.70;;
2562;SDS011;1291;51.420;6.970;2022-12-18T07:15:13;6.03;;;3.23;;
2562;SDS011;1291;51.420;6.970;2022-12-18T07:17:38;7.20;;;4.33;;
2562;SDS011;1291;51.420;6.970;2022-12-18T07:20:04;4.17;;;3.23;;
2562;SDS011;1291;51.420;6.970;2022-12-18T07:22:29;4.33;;;3.07;;
2562;SDS011;1291;51.420;6.970;2022-12-18T07:24:55;4.73;;;3.43;;
2562;SDS011;1291;51.420;6.970;2022-12-18T07:27:20;6.17;;;3.77;;
2562;SDS011;1291;51.420;6.970;2022-12-18T07:29:46;3.93;;;2.97;;
2562;SDS011;1291;51.420;6.970;2022-12-18T07:32:11;3.93;;;3.00;;
2562;SDS011;1291;51.420;6.970;2022-12-18T07:34:37;6.00;;;3.23;;
2562;SDS011;1291;51.420;6.970;2022-12-18T07:37:02;5.67;;;2.83;;
2562;SDS011;1291;51.420;6.970;2022-12-18T07:39:27;5.37;;;3.27;;
2562;SDS011;1291;51.420;6.970;2022-12-18T07:41:53;5.53;;;3.20;;
2562;SDS011;1291;51.420;6.970;2022-12-18T07:44:37;4.53;;;3.10;;
2562;SDS011;1291;51.420;6.970;2022-12-18T07:47:02;5.90;;;3.30;;
2562;SDS011;1291;51.420;6.970;2022-12-18T07:49:27;5.03;;;3.40;;
2562;SDS011;1291;51.420;6.970;2022-12-18T07:51:54;5.93;;;3.10;;
2562;SDS011;1291;51.420;6.970;2022-12-18T07:54:21;4.43;;;3.17;;
2562;SDS011;1291;51.420;6.970;2022-12-18T07:56:47;3.17;;;2.73;;
2562;SDS011;1291;51.420;6.970;2022-12-18T07:59:13;3.73;;;2.73;;
2562;SDS011;1291;51.420;6.970;2022-12-18T08:01:38;4.93;;;2.90;;
2562;SDS011;1291;51.420;6.970;2022-12-18T08:04:03;3.23;;;2.60;;
2562;SDS011;1291;51.420;6.970;2022-12-18T08:06:29;4.87;;;3.00;;
2562;SDS011;1291;51.420;6.970;2022-12-18T08:08:54;7.03;;;3.40;;
2562;SDS011;1291;51.420;6.970;2022-12-18T08:11:21;5.37;;;3.23;;
2562;SDS011;1291;51.420;6.970;2022-12-18T08:13:47;3.40;;;2.60;;
2562;SDS011;1291;51.420;6.970;2022-12-18T08:16:12;3.30;;;2.40;;
2562;SDS011;1291;51.420;6.970;2022-12-18T08:18:37;6.10;;;3.10;;
2562;SDS011;1291;51.420;6.970;2022-12-18T08:23:43;3.93;;;2.90;;
2562;SDS011;1291;51.420;6.970;2022-12-18T08:26:10;6.47;;;3.00;;
2562;SDS011;1291;51.420;6.970;2022-12-18T08:28:36;5.83;;;3.50;;
2562;SDS011;1291;51.420;6.970;2022-12-18T08:31:01;3.80;;;2.80;;
2562;SDS011;1291;51.420;6.970;2022-12-18T08:33:27;4.83;;;3.30;;
2562;SDS011;1291;51.420;6.970;2022-12-18T08:35:52;3.97;;;2.93;;
2562;SDS011;1291;51.420;6.970;2022-12-18T08:38:18;4.07;;;2.90;;
2562;SDS011;1291;51.420;6.970;2022-12-18T08:40:43;4.23;;;3.30;;
2562;SDS011;1291;51.420;6.970;2022-12-18T08:43:09;3.83;;;3.03;;
2562;SDS011;1291;51.420;6.970;2022-12-18T08:45:54;5.40;;;3.60;;
2562;SDS011;1291;51.420;6.970;2022-12-18T08:48:20;4.10;;;3.20;;
2562;SDS011;1291;51.420;6.970;2022-12-18T08:51:03;5.43;;;3.10;;
2562;SDS011;1291;51.420;6.970;2022-12-18T08:53:28;5.53;;;2.90;;
2562;SDS011;1291;51.420;6.970;2022-12-18T08:55:54;4.93;;;3.30;;
2562;SDS011;1291;51.420;6.970;2022-12-18T08:58:21;4.63;;;3.30;;
2562;SDS011;1291;51.420;6.970;2022-12-18T09:00:47;4.77;;;2.97;;
2562;SDS011;1291;51.420;6.970;2022-12-18T09:03:13;3.27;;;2.20;;
2562;SDS011;1291;51.420;6.970;2022-12-18T09:05:39;4.47;;;3.10;;
2562;SDS011;1291;51.420;6.970;2022-12-18T09:08:05;3.97;;;2.67;;
2562;SDS011;1291;51.420;6.970;2022-12-18T09:10:30;5.70;;;3.43;;
2562;SDS011;1291;51.420;6.970;2022-12-18T09:12:56;6.00;;;2.87;;
2562;SDS011;1291;51.420;6.970;2022-12-18T09:15:21;6.17;;;2.77;;
2562;SDS011;1291;51.420;6.970;2022-12-18T09:17:47;4.40;;;3.10;;
2562;SDS011;1291;51.420;6.970;2022-12-18T09:20:13;4.23;;;2.90;;
2562;SDS011;1291;51.420;6.970;2022-12-18T09:22:38;4.00;;;2.73;;
2562;SDS011;1291;51.420;6.970;2022-12-18T09:25:03;4.67;;;2.83;;
2562;SDS011;1291;51.420;6.970;2022-12-18T09:27:32;4.30;;;3.13;;
2562;SDS011;1291;51.420;6.970;2022-12-18T09:29:57;5.30;;;3.00;;
2562;SDS011;1291;51.420;6.970;2022-12-18T09:32:22;5.93;;;2.93;;
2562;SDS011;1291;51.420;6.970;2022-12-18T09:34:48;3.07;;;2.43;;
2562;SDS011;1291;51.420;6.970;2022-12-18T09:37:14;3.37;;;2.53;;
2562;SDS011;1291;51.420;6.970;2022-12-18T09:39:39;3.47;;;2.70;;
2562;SDS011;1291;51.420;6.970;2022-12-18T09:42:04;3.53;;;2.87;;
2562;SDS011;1291;51.420;6.970;2022-12-18T09:47:10;4.23;;;2.83;;
2562;SDS011;1291;51.420;6.970;2022-12-18T09:49:56;6.33;;;2.57;;
2562;SDS011;1291;51.420;6.970;2022-12-18T09:52:31;4.93;;;3.30;;
2562;SDS011;1291;51.420;6.970;2022-12-18T09:58:14;3.50;;;2.77;;
2562;SDS011;1291;51.420;6.970;2022-12-18T10:01:00;3.80;;;3.00;;
2562;SDS011;1291;51.420;6.970;2022-12-18T10:03:26;3.60;;;2.77;;
2562;SDS011;1291;51.420;6.970;2022-12-18T10:08:59;4.83;;;2.93;;
2562;SDS011;1291;51.420;6.970;2022-12-18T10:14:26;4.07;;;3.17;;
2562;SDS011;1291;51.420;6.970;2022-12-18T10:20:13;3.80;;;3.07;;
2562;SDS011;1291;51.420;6.970;2022-12-18T10:26:01;4.23;;;2.70;;
2562;SDS011;1291;51.420;6.970;2022-12-18T10:28:30;5.03;;;2.80;;
2562;SDS011;1291;51.420;6.970;2022-12-18T10:30:57;4.77;;;3.33;;
2562;SDS011;1291;51.420;6.970;2022-12-18T10:33:23;5.70;;;3.00;;
2562;SDS011;1291;51.420;6.970;2022-12-18T10:35:52;5.83;;;3.43;;
2562;SDS011;1291;51.420;6.970;2022-12-18T10:41:00;4.77;;;3.20;;
2562;SDS011;1291;51.420;6.970;2022-12-18T10:43:27;6.20;;;3.67;;
2562;SDS011;1291;51.420;6.970;2022-12-18T10:46:17;5.23;;;3.40;;
2562;SDS011;1291;51.420;6.970;2022-12-18T10:51:20;6.57;;;3.13;;
2562;SDS011;1291;51.420;6.970;2022-12-18T10:54:01;4.50;;;3.40;;
2562;SDS011;1291;51.420;6.970;2022-12-18T10:56:41;6.53;;;3.90;;
2562;SDS011;1291;51.420;6.970;2022-12-18T10:59:07;5.10;;;3.30;;
2562;SDS011;1291;51.420;6.970;2022-12-18T11:01:48;6.97;;;4.07;;
2562;SDS011;1291;51.420;6.970;2022-12-18T11:09:19;10.83;;;4.10;;
2562;SDS011;1291;51.420;6.970;2022-12-18T11:12:29;7.10;;;4.47;;
2562;SDS011;1291;51.420;6.970;2022-12-18T11:14:49;5.20;;;3.33;;
2562;SDS011;1291;51.420;6.970;2022-12-18T11:17:22;10.03;;;4.37;;
2562;SDS011;1291;51.420;6.970;2022-12-18T11:19:56;6.63;;;4.33;;
2562;SDS011;1291;51.420;6.970;2022-12-18T11:22:24;7.00;;;4.20;;
2562;SDS011;1291;51.420;6.970;2022-12-18T11:25:02;6.27;;;3.90;;
2562;SDS011;1291;51.420;6.970;2022-12-18T11:27:31;6.33;;;4.10;;
2562;SDS011;1291;51.420;6.970;2022-12-18T11:30:20;6.33;;;3.90;;
2562;SDS011;1291;51.420;6.970;2022-12-18T11:32:49;7.77;;;4.97;;
2562;SDS011;1291;51.420;6.970;2022-12-18T11:35:18;9.30;;;5.33;;
2562;SDS011;1291;51.420;6.970;2022-12-18T11:38:06;8.00;;;5.20;;
2562;SDS011;1291;51.420;6.970;2022-12-18T11:40:43;7.57;;;4.47;;
2562;SDS011;1291;51.420;6.970;2022-12-18T11:43:13;6.10;;;4.23;;
2562;SDS011;1291;51.420;6.970;2022-12-18T11:45:52;6.50;;;4.23;;
2562;SDS011;1291;51.420;6.970;2022-12-18T11:48:22;7.90;;;4.60;;
2562;SDS011;1291;51.420;6.970;2022-12-18T11:50:52;8.37;;;4.63;;
2562;SDS011;1291;51.420;6.970;2022-12-18T11:53:35;7.63;;;4.60;;
2562;SDS011;1291;51.420;6.970;2022-12-18T11:56:26;8.00;;;5.37;;
2562;SDS011;1291;51.420;6.970;2022-12-18T12:01:51;8.27;;;4.57;;
2562;SDS011;1291;51.420;6.970;2022-12-18T12:04:36;6.00;;;4.37;;
2562;SDS011;1291;51.420;6.970;2022-12-18T12:10:28;6.83;;;4.60;;
2562;SDS011;1291;51.420;6.970;2022-12-18T12:13:05;10.83;;;4.77;;
2562;SDS011;1291;51.420;6.970;2022-12-18T12:16:36;8.57;;;4.80;;
2562;SDS011;1291;51.420;6.970;2022-12-18T12:21:29;6.23;;;4.10;;
2562;SDS011;1291;51.420;6.970;2022-12-18T12:32:30;8.30;;;5.50;;
2562;SDS011;1291;51.420;6.970;2022-12-18T12:35:04;6.10;;;4.30;;
2562;SDS011;1291;51.420;6.970;2022-12-18T12:43:51;9.93;;;6.03;;
2562;SDS011;1291;51.420;6.970;2022-12-18T12:46:19;6.73;;;4.60;;
2562;SDS011;1291;51.420;6.970;2022-12-18T12:48:47;7.90;;;5.27;;
2562;SDS011;1291;51.420;6.970;2022-12-18T12:51:21;8.67;;;5.83;;
2562;SDS011;1291;51.420;6.970;2022-12-18T12:53:49;8.30;;;5.10;;
2562;SDS011;1291;51.420;6.970;2022-12-18T12:56:16;10.03;;;6.13;;
2562;SDS011;1291;51.420;6.970;2022-12-18T13:01:40;7.70;;;5.03;;
2562;SDS011;1291;51.420;6.970;2022-12-18T13:09:24;9.80;;;5.73;;
2562;SDS011;1291;51.420;6.970;2022-12-18T13:11:49;8.20;;;5.67;;
2562;SDS011;1291;51.420;6.970;2022-12-18T13:14:35;9.73;;;6.10;;
2562;SDS011;1291;51.420;6.970;2022-12-18T13:19:52;8.73;;;6.17;;
2562;SDS011;1291;51.420;6.970;2022-12-18T13:22:30;9.53;;;6.47;;
2562;SDS011;1291;51.420;6.970;2022-12-18T13:24:59;13.57;;;6.67;;
2562;SDS011;1291;51.420;6.970;2022-12-18T13:30:42;11.40;;;7.13;;
2562;SDS011;1291;51.420;6.970;2022-12-18T13:38:22;11.17;;;6.50;;
2562;SDS011;1291;51.420;6.970;2022-12-18T13:41:02;11.30;;;6.93;;
2562;SDS011;1291;51.420;6.970;2022-12-18T13:43:50;12.33;;;6.80;;
2562;SDS011;1291;51.420;6.970;2022-12-18T13:46:21;10.63;;;6.97;;
2562;SDS011;1291;51.420;6.970;2022-12-18T13:49:16;10.43;;;6.70;;
2562;SDS011;1291;51.420;6.970;2022-12-18T13:51:49;10.40;;;6.77;;
2562;SDS011;1291;51.420;6.970;2022-12-18T13:57:02;12.33;;;6.97;;
2562;SDS011;1291;51.420;6.970;2022-12-18T14:02:05;10.70;;;7.00;;
2562;SDS011;1291;51.420;6.970;2022-12-18T14:04:38;12.23;;;7.80;;
2562;SDS011;1291;51.420;6.970;2022-12-18T14:07:13;11.47;;;7.03;;
2562;SDS011;1291;51.420;6.970;2022-12-18T14:09:45;10.57;;;7.40;;
2562;SDS011;1291;51.420;6.970;2022-12-18T14:12:17;9.20;;;6.87;;
2562;SDS011;1291;51.420;6.970;2022-12-18T14:15:05;11.50;;;7.93;;
2562;SDS011;1291;51.420;6.970;2022-12-18T14:17:40;13.47;;;8.17;;
2562;SDS011;1291;51.420;6.970;2022-12-18T14:20:05;12.57;;;7.47;;
2562;SDS011;1291;51.420;6.970;2022-12-18T14:22:39;10.60;;;7.30;;
2562;SDS011;1291;51.420;6.970;2022-12-18T14:27:50;13.60;;;7.87;;
2562;SDS011;1291;51.420;6.970;2022-12-18T14:33:01;13.10;;;7.43;;
2562;SDS011;1291;51.420;6.970;2022-12-18T14:35:30;11.33;;;7.77;;
2562;SDS011;1291;51.420;6.970;2022-12-18T14:40:40;12.33;;;8.00;;
2562;SDS011;1291;51.420;6.970;2022-12-18T14:43:08;11.97;;;8.13;;
2562;SDS011;1291;51.420;6.970;2022-12-18T14:45:53;9.93;;;7.07;;
2562;SDS011;1291;51.420;6.970;2022-12-18T14:50:54;12.37;;;8.13;;
2562;SDS011;1291;51.420;6.970;2022-12-18T14:53:35;16.10;;;8.23;;
2562;SDS011;1291;51.420;6.970;2022-12-18T14:56:03;11.97;;;8.00;;
2562;SDS011;1291;51.420;6.970;2022-12-18T14:58:38;16.53;;;9.17;;
2562;SDS011;1291;51.420;6.970;2022-12-18T15:01:04;12.53;;;7.83;;
2562;SDS011;1291;51.420;6.970;2022-12-18T15:03:33;14.50;;;9.40;;
2562;SDS011;1291;51.420;6.970;2022-12-18T15:06:14;12.67;;;7.60;;
2562;SDS011;1291;51.420;6.970;2022-12-18T15:08:48;13.73;;;8.33;;
2562;SDS011;1291;51.420;6.970;2022-12-18T15:16:58;14.57;;;9.13;;
2562;SDS011;1291;51.420;6.970;2022-12-18T15:19:38;23.37;;;9.40;;
2562;SDS011;1291;51.420;6.970;2022-12-18T15:22:15;17.10;;;9.60;;
2562;SDS011;1291;51.420;6.970;2022-12-18T15:24:42;14.30;;;9.20;;
2562;SDS011;1291;51.420;6.970;2022-12-18T15:27:19;13.80;;;9.67;;
2562;SDS011;1291;51.420;6.970;2022-12-18T15:29:59;15.50;;;9.73;;
2562;SDS011;1291;51.420;6.970;2022-12-18T15:32:45;18.13;;;9.60;;
2562;SDS011;1291;51.420;6.970;2022-12-18T15:35:14;15.57;;;10.00;;
2562;SDS011;1291;51.420;6.970;2022-12-18T15:37:47;18.67;;;10.73;;
2562;SDS011;1291;51.420;6.970;2022-12-18T15:40:18;18.67;;;11.27;;
2562;SDS011;1291;51.420;6.970;2022-12-18T15:42:45;14.93;;;10.40;;
2562;SDS011;1291;51.420;6.970;2022-12-18T15:45:30;17.37;;;10.60;;
2562;SDS011;1291;51.420;6.970;2022-12-18T15:47:56;13.13;;;9.37;;
2562;SDS011;1291;51.420;6.970;2022-12-18T15:50:21;20.00;;;10.80;;
2562;SDS011;1291;51.420;6.970;2022-12-18T15:52:48;15.77;;;10.47;;
2562;SDS011;1291;51.420;6.970;2022-12-18T15:55:20;16.27;;;10.73;;
2562;SDS011;1291;51.420;6.970;2022-12-18T15:58:05;16.67;;;10.83;;
2562;SDS011;1291;51.420;6.970;2022-12-18T16:00:32;19.40;;;12.13;;
2562;SDS011;1291;51.420;6.970;2022-12-18T16:02:59;21.87;;;12.63;;
2562;SDS011;1291;51.420;6.970;2022-12-18T16:05:25;20.10;;;12.53;;
2562;SDS011;1291;51.420;6.970;2022-12-18T16:07:51;20.67;;;11.60;;
2562;SDS011;1291;51.420;6.970;2022-12-18T16:10:17;19.60;;;12.27;;
2562;SDS011;1291;51.420;6.970;2022-12-18T16:12:42;18.47;;;12.00;;
2562;SDS011;1291;51.420;6.970;2022-12-18T16:15:12;19.27;;;12.40;;
2562;SDS011;1291;51.420;6.970;2022-12-18T16:17:39;22.60;;;13.27;;
2562;SDS011;1291;51.420;6.970;2022-12-18T16:20:06;20.83;;;12.73;;
2562;SDS011;1291;51.420;6.970;2022-12-18T16:22:37;21.27;;;12.40;;
2562;SDS011;1291;51.420;6.970;2022-12-18T16:25:03;19.53;;;12.60;;
2562;SDS011;1291;51.420;6.970;2022-12-18T16:27:30;19.97;;;12.93;;
2562;SDS011;1291;51.420;6.970;2022-12-18T16:29:55;20.07;;;12.63;;
2562;SDS011;1291;51.420;6.970;2022-12-18T16:32:21;18.07;;;13.03;;
2562;SDS011;1291;51.420;6.970;2022-12-18T16:34:50;22.93;;;13.37;;
2562;SDS011;1291;51.420;6.970;2022-12-18T16:37:15;18.80;;;12.97;;
2562;SDS011;1291;51.420;6.970;2022-12-18T16:39:41;20.07;;;13.23;;
2562;SDS011;1291;51.420;6.970;2022-12-18T16:42:15;21.83;;;13.00;;
2562;SDS011;1291;51.420;6.970;2022-12-18T16:44:47;22.77;;;13.30;;
2562;SDS011;1291;51.420;6.970;2022-12-18T16:47:14;20.90;;;13.00;;
2562;SDS011;1291;51.420;6.970;2022-12-18T16:49:42;23.13;;;13.83;;
2562;SDS011;1291;51.420;6.970;2022-12-18T16:52:12;24.23;;;14.43;;
2562;SDS011;1291;51.420;6.970;2022-12-18T16:54:38;22.90;;;14.03;;
2562;SDS011;1291;51.420;6.970;2022-12-18T16:57:03;23.43;;;13.90;;
2562;SDS011;1291;51.420;6.970;2022-12-18T16:59:29;22.87;;;13.97;;
2562;SDS011;1291;51.420;6.970;2022-12-18T17:01:55;20.87;;;13.30;;
2562;SDS011;1291;51.420;6.970;2022-12-18T17:04:21;23.67;;;14.10;;
2562;SDS011;1291;51.420;6.970;2022-12-18T17:06:46;24.03;;;14.27;;
2562;SDS011;1291;51.420;6.970;2022-12-18T17:09:16;23.87;;;13.90;;
2562;SDS011;1291;51.420;6.970;2022-12-18T17:11:45;22.53;;;12.70;;
2562;SDS011;1291;51.420;6.970;2022-12-18T17:14:15;24.37;;;13.77;;
2562;SDS011;1291;51.420;6.970;2022-12-18T17:16:45;23.80;;;14.53;;
2562;SDS011;1291;51.420;6.970;2022-12-18T17:19:11;23.80;;;14.90;;
2562;SDS011;1291;51.420;6.970;2022-12-18T17:21:41;24.90;;;14.57;;
2562;SDS011;1291;51.420;6.970;2022-12-18T17:24:06;21.77;;;13.77;;
2562;SDS011;1291;51.420;6.970;2022-12-18T17:26:32;28.60;;;16.80;;